createdAt,value
2023-03-20T00:02:19.613Z,11.37
2023-03-20T00:07:21.301Z,11.38
2023-03-20T00:12:22.481Z,11.43
2023-03-20T00:17:20.709Z,11.47
2023-03-20T00:22:17.211Z,11.42
2023-03-20T00:27:14.957Z,11.36
2023-03-20T00:32:13.040Z,11.41
2023-03-20T00:37:11.484Z,11.37
2023-03-20T00:42:14.654Z,11.32
2023-03-20T00:47:19.680Z,11.37
2023-03-20T00:52:17.721Z,11.37
2023-03-20T00:57:29.996Z,11.34
2023-03-20T01:02:33.072Z,11.32
2023-03-20T01:07:30.008Z,11.28
2023-03-20T01:12:28.497Z,11.34
2023-03-20T01:17:26.578Z,11.28
2023-03-20T01:22:23.192Z,11.34
2023-03-20T01:27:20.295Z,11.30
2023-03-20T01:32:18.613Z,11.30
2023-03-20T01:37:18.901Z,11.29
2023-03-20T01:42:16.131Z,11.18
2023-03-20T01:47:17.714Z,11.26
2023-03-20T01:52:15.424Z,11.17
2023-03-20T01:57:21.359Z,11.16
2023-03-20T02:08:24.037Z,11.12
2023-03-20T02:13:21.210Z,11.09
2023-03-20T02:18:17.741Z,11.02
2023-03-20T02:24:03.700Z,10.95
2023-03-20T02:29:26.574Z,10.90
2023-03-20T02:34:48.532Z,10.79
2023-03-20T02:40:14.700Z,10.72
2023-03-20T02:45:53.945Z,10.70
2023-03-20T02:51:01.089Z,10.63
2023-03-20T02:56:14.440Z,10.58
2023-03-20T03:01:30.012Z,10.48
2023-03-20T03:06:35.854Z,10.42
2023-03-20T03:11:34.627Z,10.39
2023-03-20T03:16:34.186Z,10.35
2023-03-20T03:21:31.358Z,10.28
2023-03-20T03:26:31.525Z,10.32
2023-03-20T03:31:29.691Z,10.26
2023-03-20T03:37:09.903Z,10.26
2023-03-20T03:42:25.961Z,10.24
2023-03-20T03:47:54.937Z,10.22
2023-03-20T03:52:52.548Z,10.19
2023-03-20T03:58:01.984Z,10.17
2023-03-20T04:02:58.922Z,10.18
2023-03-20T04:08:01.618Z,10.18
2023-03-20T04:12:58.076Z,10.07
2023-03-20T04:17:54.656Z,10.15
2023-03-20T04:22:51.175Z,10.16
2023-03-20T04:27:48.831Z,10.13
2023-03-20T04:37:57.445Z,10.15
2023-03-20T04:42:56.536Z,10.13
2023-03-20T04:47:53.016Z,10.14
2023-03-20T04:52:49.581Z,10.19
2023-03-20T04:57:47.042Z,10.19
2023-03-20T05:02:43.921Z,10.30
2023-03-20T05:07:40.370Z,10.36
2023-03-20T05:12:41.893Z,10.45
2023-03-20T05:17:41.969Z,10.38
2023-03-20T05:50:00.117Z,9.76
2023-03-20T08:31:55.371Z,10.62
2023-03-20T08:36:52.704Z,10.55
2023-03-20T08:55:16.799Z,10.55
2023-03-20T09:13:25.345Z,10.57
2023-03-20T09:19:12.657Z,10.65
2023-03-20T09:37:15.263Z,10.93
2023-03-20T10:08:49.376Z,11.08
2023-03-20T10:21:30.707Z,11.15
2023-03-20T10:27:34.691Z,11.00
2023-03-20T11:06:15.691Z,11.37
2023-03-20T11:28:55.767Z,11.55
2023-03-20T12:00:25.279Z,11.59
2023-03-20T12:05:46.346Z,11.52
2023-03-20T12:18:39.908Z,11.39
2023-03-20T13:46:42.094Z,12.50
2023-03-20T13:47:31.988Z,12.21
2023-03-20T13:59:51.434Z,12.09
2023-03-20T14:19:44.619Z,12.05
2023-03-20T14:47:53.267Z,11.78
2023-03-20T15:11:20.808Z,11.82
2023-03-20T15:30:06.800Z,11.55
2023-03-20T15:35:05.317Z,11.65
2023-03-20T15:40:11.079Z,11.69
2023-03-20T15:45:29.286Z,11.71
2023-03-20T15:50:26.042Z,11.72
2023-03-20T15:55:23.054Z,11.71
2023-03-20T16:00:39.710Z,11.67
2023-03-20T16:05:36.284Z,11.59
2023-03-20T16:17:36.144Z,11.29
2023-03-20T16:46:29.870Z,11.28
2023-03-20T16:58:00.488Z,11.30
2023-03-20T17:04:06.251Z,11.29
2023-03-20T17:09:23.332Z,11.26
2023-03-20T17:14:20.039Z,11.23
2023-03-20T17:31:30.420Z,11.14
2023-03-20T17:36:32.473Z,11.13
2023-03-20T17:41:51.156Z,11.11
2023-03-20T17:46:57.915Z,11.13
2023-03-20T17:52:09.141Z,11.12
2023-03-20T17:57:19.793Z,11.07
2023-03-20T18:03:20.033Z,10.87
2023-03-20T18:08:38.037Z,10.97
2023-03-20T20:50:09.424Z,10.41
2023-03-20T20:55:21.711Z,10.45
2023-03-20T21:00:21.086Z,10.33
2023-03-20T21:05:20.526Z,10.39
2023-03-20T21:10:19.028Z,10.31
2023-03-20T21:15:16.540Z,10.43
2023-03-20T21:20:13.389Z,10.33
2023-03-20T21:25:15.178Z,10.33
2023-03-20T21:30:14.148Z,10.27
2023-03-20T21:35:11.028Z,10.29
2023-03-20T21:40:08.726Z,10.33
2023-03-20T21:50:57.488Z,10.33
2023-03-20T22:12:27.865Z,10.17
2023-03-20T22:23:40.444Z,10.16
2023-03-20T22:28:02.489Z,10.14
2023-03-20T22:38:41.484Z,10.06
2023-03-20T22:48:26.467Z,10.04
2023-03-20T22:53:22.988Z,9.91
2023-03-20T22:58:19.505Z,10.00
2023-03-20T23:03:29.500Z,9.96
2023-03-20T23:08:31.486Z,9.95
2023-03-20T23:13:30.646Z,9.89
2023-03-20T23:18:27.432Z,9.97
2023-03-20T23:23:25.186Z,10.01
2023-03-20T23:28:21.677Z,9.96
2023-03-20T23:33:18.377Z,9.86
2023-03-20T23:38:14.910Z,9.89
2023-03-20T23:43:11.412Z,9.84
2023-03-20T23:48:07.940Z,9.85
2023-03-20T23:53:17.496Z,9.86
2023-03-20T23:58:15.815Z,9.81
